createdAt,value
2023-05-21T00:02:29.898Z,12.70
2023-05-21T00:04:58.173Z,12.70
2023-05-21T00:07:26.492Z,12.70
2023-05-21T00:09:54.784Z,12.70
2023-05-21T00:12:23.073Z,12.70
2023-05-21T00:14:51.360Z,12.60
2023-05-21T00:17:21.055Z,12.50
2023-05-21T00:19:50.292Z,12.50
2023-05-21T00:22:18.577Z,12.60
2023-05-21T00:24:46.894Z,12.40
2023-05-21T00:27:15.275Z,12.40
2023-05-21T00:29:44.473Z,12.30
2023-05-21T00:32:13.001Z,12.40
2023-05-21T00:34:44.300Z,12.40
2023-05-21T00:37:15.213Z,12.40
2023-05-21T00:39:43.825Z,12.30
2023-05-21T00:42:12.345Z,12.30
2023-05-21T00:44:41.243Z,12.30
2023-05-21T00:47:09.540Z,12.30
2023-05-21T00:49:37.924Z,12.40
2023-05-21T00:52:08.540Z,12.30
2023-05-21T00:54:37.102Z,12.20
2023-05-21T00:57:06.679Z,12.20
2023-05-21T00:59:35.166Z,12.20
2023-05-21T01:02:06.667Z,12.20
2023-05-21T01:04:35.201Z,12.20
2023-05-21T01:07:03.459Z,12.20
2023-05-21T01:09:33.356Z,12.20
2023-05-21T01:12:03.328Z,12.20
2023-05-21T01:14:32.767Z,12.20
2023-05-21T01:17:03.218Z,12.20
2023-05-21T01:19:32.623Z,12.20
2023-05-21T01:22:06.379Z,12.30
2023-05-21T01:24:37.338Z,12.20
2023-05-21T01:27:07.712Z,12.10
2023-05-21T01:29:36.200Z,12.20
2023-05-21T01:32:15.546Z,12.20
2023-05-21T01:34:56.883Z,12.10
2023-05-21T01:37:34.239Z,12.20
2023-05-21T01:40:14.051Z,12.20
2023-05-21T01:42:46.544Z,12.20
2023-05-21T01:45:17.359Z,12.20
2023-05-21T01:47:50.294Z,12.20
2023-05-21T01:50:19.788Z,12.10
2023-05-21T01:52:52.815Z,12.00
2023-05-21T01:55:24.518Z,11.90
2023-05-21T01:57:54.402Z,12.00
2023-05-21T02:00:23.881Z,12.00
2023-05-21T02:02:52.757Z,11.90
2023-05-21T02:05:21.099Z,11.90
2023-05-21T02:07:50.961Z,12.00
2023-05-21T02:10:19.906Z,11.90
2023-05-21T02:12:49.537Z,11.90
2023-05-21T02:15:19.239Z,12.00
2023-05-21T02:17:47.965Z,11.90
2023-05-21T02:20:16.432Z,11.70
2023-05-21T02:22:47.768Z,11.70
2023-05-21T02:25:18.400Z,11.70
2023-05-21T02:27:47.555Z,11.80
2023-05-21T02:30:17.325Z,11.80
2023-05-21T02:32:45.770Z,11.90
2023-05-21T02:35:14.721Z,11.90
2023-05-21T02:37:43.939Z,11.90
2023-05-21T02:40:13.584Z,11.90
2023-05-21T02:42:42.619Z,11.80
2023-05-21T02:45:16.917Z,11.80
2023-05-21T02:47:45.655Z,11.90
2023-05-21T02:50:15.832Z,11.80
2023-05-21T02:52:49.461Z,11.80
2023-05-21T02:55:17.835Z,11.80
2023-05-21T02:57:46.215Z,11.80
2023-05-21T03:00:17.482Z,11.80
2023-05-21T03:02:46.206Z,11.70
2023-05-21T03:05:14.940Z,11.70
2023-05-21T03:07:43.615Z,11.80
2023-05-21T03:10:12.518Z,11.80
2023-05-21T03:12:40.801Z,11.70
2023-05-21T03:15:10.828Z,11.70
2023-05-21T03:17:42.097Z,11.70
2023-05-21T03:20:16.095Z,11.70
2023-05-21T03:22:45.089Z,11.60
2023-05-21T03:25:14.136Z,11.60
2023-05-21T03:27:42.637Z,11.60
2023-05-21T03:30:42.054Z,11.60
2023-05-21T03:33:37.789Z,11.50
2023-05-21T03:36:23.934Z,11.50
2023-05-21T03:38:52.361Z,11.50
2023-05-21T03:41:21.988Z,11.50
2023-05-21T03:43:55.179Z,11.50
2023-05-21T03:46:27.959Z,11.50
2023-05-21T03:49:10.447Z,11.50
2023-05-21T03:51:40.264Z,11.50
2023-05-21T03:54:10.753Z,11.40
2023-05-21T03:56:39.564Z,11.50
2023-05-21T03:59:07.941Z,11.50
2023-05-21T04:01:37.133Z,11.60
2023-05-21T04:04:05.920Z,11.60
2023-05-21T04:06:36.788Z,11.70
2023-05-21T04:09:05.786Z,11.90
2023-05-21T04:11:34.159Z,12.00
2023-05-21T04:14:02.863Z,12.10
2023-05-21T04:16:31.311Z,12.10
2023-05-21T04:18:59.644Z,12.20
2023-05-21T04:21:28.834Z,12.30
2023-05-21T04:24:00.764Z,12.30
2023-05-21T04:26:48.120Z,12.40
2023-05-21T04:29:18.032Z,12.50
2023-05-21T04:31:46.418Z,12.60
2023-05-21T04:34:18.018Z,12.60
2023-05-21T04:36:46.894Z,12.50
2023-05-21T04:39:17.435Z,12.50
2023-05-21T04:41:45.705Z,12.50
2023-05-21T04:44:15.373Z,12.50
2023-05-21T04:46:46.755Z,12.50
2023-05-21T04:49:15.290Z,12.50
2023-05-21T04:51:43.652Z,12.60
2023-05-21T04:54:11.927Z,12.70
2023-05-21T04:56:42.444Z,13.00
2023-05-21T04:59:10.793Z,13.10
2023-05-21T05:01:39.318Z,13.10
2023-05-21T05:04:08.051Z,13.20
2023-05-21T05:06:36.524Z,13.30
2023-05-21T05:09:05.532Z,13.40
2023-05-21T05:11:33.839Z,13.40
2023-05-21T05:14:03.565Z,13.40
2023-05-21T05:16:32.014Z,13.40
2023-05-21T05:19:00.985Z,13.60
2023-05-21T05:21:29.656Z,13.60
2023-05-21T05:23:58.128Z,13.70
2023-05-21T05:26:29.548Z,13.70
2023-05-21T05:28:59.367Z,13.70
2023-05-21T05:31:29.158Z,13.80
2023-05-21T05:33:58.269Z,13.80
2023-05-21T05:36:27.168Z,13.80
2023-05-21T05:38:55.539Z,14.00
2023-05-21T05:41:24.035Z,13.90
2023-05-21T05:43:52.302Z,14.00
2023-05-21T05:46:23.304Z,14.10
2023-05-21T05:48:54.114Z,14.20
2023-05-21T05:51:22.463Z,14.20
2023-05-21T05:53:51.021Z,14.30
2023-05-21T05:56:19.463Z,14.50
2023-05-21T05:58:47.717Z,14.60
2023-05-21T06:01:17.843Z,14.60
2023-05-21T06:03:47.376Z,14.60
2023-05-21T06:06:20.051Z,14.70
2023-05-21T06:08:49.057Z,14.80
2023-05-21T06:11:19.054Z,14.80
2023-05-21T06:13:47.552Z,14.90
2023-05-21T06:16:18.505Z,15.00
2023-05-21T06:18:46.975Z,15.20
2023-05-21T06:21:15.252Z,15.30
2023-05-21T06:23:45.105Z,15.50
2023-05-21T06:26:13.480Z,15.40
2023-05-21T06:28:42.299Z,15.40
2023-05-21T06:31:13.604Z,15.50
2023-05-21T06:33:43.608Z,15.60
2023-05-21T06:36:12.021Z,15.70
2023-05-21T06:38:42.605Z,15.80
2023-05-21T06:41:12.320Z,15.80
2023-05-21T06:44:01.027Z,16.00
2023-05-21T06:46:49.761Z,16.10
2023-05-21T06:49:20.314Z,16.00
2023-05-21T06:51:48.578Z,16.10
2023-05-21T06:54:16.865Z,16.10
2023-05-21T06:56:46.517Z,16.10
2023-05-21T06:59:16.636Z,16.00
2023-05-21T07:01:45.138Z,16.10
2023-05-21T07:04:14.786Z,16.20
2023-05-21T07:06:44.686Z,16.30
2023-05-21T07:09:13.344Z,16.40
2023-05-21T07:11:41.956Z,16.40
2023-05-21T07:14:12.623Z,16.50
2023-05-21T07:16:40.973Z,16.60
2023-05-21T07:19:10.060Z,16.60
2023-05-21T07:21:38.556Z,16.70
2023-05-21T07:24:08.748Z,16.80
2023-05-21T07:26:40.408Z,16.80
2023-05-21T07:29:09.033Z,16.80
2023-05-21T07:31:39.065Z,16.90
2023-05-21T07:34:10.843Z,16.90
2023-05-21T07:36:41.320Z,17.10
2023-05-21T07:39:10.706Z,17.20
2023-05-21T07:41:39.929Z,17.30
2023-05-21T07:44:10.003Z,17.30
2023-05-21T07:46:45.754Z,17.40
2023-05-21T07:49:16.768Z,17.50
2023-05-21T07:51:46.671Z,17.60
2023-05-21T07:54:15.153Z,17.80
2023-05-21T07:56:43.663Z,18.00
2023-05-21T07:59:21.897Z,18.30
2023-05-21T08:01:52.002Z,18.30
2023-05-21T08:04:20.453Z,18.30
2023-05-21T08:06:49.567Z,18.30
2023-05-21T08:09:18.113Z,18.30
2023-05-21T08:11:46.542Z,18.40
2023-05-21T08:14:14.840Z,18.50
2023-05-21T08:16:44.978Z,18.50
2023-05-21T08:19:14.874Z,18.50
2023-05-21T08:21:43.758Z,18.60
2023-05-21T08:24:12.922Z,18.70
2023-05-21T08:26:41.272Z,18.80
2023-05-21T08:29:09.654Z,18.90
2023-05-21T08:31:40.269Z,19.00
2023-05-21T08:34:08.689Z,19.20
2023-05-21T08:36:47.026Z,19.30
2023-05-21T08:39:38.219Z,19.30
2023-05-21T08:42:32.953Z,19.30
2023-05-21T08:45:07.737Z,19.30
2023-05-21T08:47:37.639Z,19.30
2023-05-21T08:50:12.438Z,19.30
2023-05-21T08:52:42.714Z,19.30
2023-05-21T08:55:11.849Z,19.40
2023-05-21T08:57:44.619Z,19.50
2023-05-21T09:00:16.768Z,19.60
2023-05-21T09:02:46.387Z,19.70
2023-05-21T09:05:17.439Z,19.70
2023-05-21T09:07:56.734Z,19.70
2023-05-21T09:10:53.414Z,19.70
2023-05-21T09:13:28.540Z,19.80
2023-05-21T09:15:57.076Z,19.80
2023-05-21T09:18:27.511Z,19.70
2023-05-21T09:21:25.502Z,19.80
2023-05-21T09:23:59.853Z,19.70
2023-05-21T09:26:28.233Z,19.60
2023-05-21T09:29:01.880Z,19.60
2023-05-21T09:31:32.870Z,19.60
2023-05-21T09:34:02.472Z,19.60
2023-05-21T09:36:34.615Z,19.70
2023-05-21T09:39:04.928Z,19.80
2023-05-21T09:41:35.799Z,19.90
2023-05-21T09:44:06.276Z,19.90
2023-05-21T09:46:40.773Z,20.00
2023-05-21T09:49:25.028Z,20.00
2023-05-21T09:51:57.540Z,20.20
2023-05-21T09:54:32.419Z,20.30
2023-05-21T09:57:02.579Z,20.40
2023-05-21T09:59:37.765Z,20.40
2023-05-21T10:02:20.086Z,20.50
2023-05-21T10:04:51.230Z,20.70
2023-05-21T10:07:26.155Z,20.70
2023-05-21T10:09:58.419Z,20.80
2023-05-21T10:12:28.808Z,21.00
2023-05-21T10:15:05.091Z,21.10
2023-05-21T10:17:35.333Z,21.20
2023-05-21T10:20:05.199Z,21.20
2023-05-21T10:22:35.429Z,21.20
2023-05-21T10:25:07.713Z,21.40
2023-05-21T10:27:37.306Z,21.40
2023-05-21T10:30:08.597Z,21.40
2023-05-21T10:32:37.165Z,21.50
2023-05-21T10:35:07.212Z,21.70
2023-05-21T10:37:36.332Z,21.80
2023-05-21T10:40:08.112Z,21.90
2023-05-21T10:43:12.625Z,22.10
2023-05-21T10:46:10.503Z,22.30
2023-05-21T10:49:01.522Z,22.40
2023-05-21T10:51:42.299Z,22.50
2023-05-21T10:54:39.772Z,22.30
2023-05-21T10:57:23.857Z,22.20
2023-05-21T10:59:53.057Z,22.30
2023-05-21T11:02:22.645Z,22.50
2023-05-21T11:04:59.947Z,22.60
2023-05-21T11:07:53.433Z,22.70
2023-05-21T11:10:40.505Z,22.60
2023-05-21T11:13:16.488Z,22.60
2023-05-21T11:16:08.005Z,22.70
2023-05-21T11:19:06.609Z,22.90
2023-05-21T11:21:37.538Z,23.10
2023-05-21T11:24:10.892Z,23.10
2023-05-21T11:27:04.740Z,23.10
2023-05-21T11:29:42.549Z,22.90
2023-05-21T11:32:13.293Z,22.90
2023-05-21T11:34:47.175Z,23.00
2023-05-21T11:37:41.555Z,23.10
2023-05-21T11:40:23.804Z,23.30
2023-05-21T11:42:54.748Z,23.30
2023-05-21T11:45:30.795Z,23.30
2023-05-21T11:47:59.257Z,23.40
2023-05-21T11:50:30.533Z,23.60
2023-05-21T11:53:00.770Z,23.60
2023-05-21T11:55:29.291Z,23.60
2023-05-21T11:57:59.972Z,23.40
2023-05-21T12:00:29.610Z,23.40
2023-05-21T12:02:58.824Z,23.50
2023-05-21T12:05:28.011Z,23.60
2023-05-21T12:07:56.444Z,23.60
2023-05-21T12:10:24.812Z,23.60
2023-05-21T12:12:57.052Z,23.60
2023-05-21T12:15:29.220Z,23.60
2023-05-21T12:17:57.861Z,23.60
2023-05-21T12:20:28.904Z,23.60
2023-05-21T12:23:00.312Z,23.70
2023-05-21T12:25:30.355Z,23.60
2023-05-21T12:28:00.480Z,23.60
2023-05-21T12:30:30.980Z,23.60
2023-05-21T12:33:02.052Z,23.60
2023-05-21T12:35:32.602Z,23.70
2023-05-21T12:38:03.853Z,23.80
2023-05-21T12:40:40.130Z,24.00
2023-05-21T12:43:09.124Z,24.00
2023-05-21T12:45:40.724Z,24.10
2023-05-21T12:48:09.514Z,24.20
2023-05-21T12:50:41.741Z,24.30
2023-05-21T12:53:11.774Z,24.30
2023-05-21T12:55:40.418Z,24.50
2023-05-21T12:58:09.305Z,24.70
2023-05-21T13:00:39.312Z,24.80
2023-05-21T13:03:07.981Z,24.80
2023-05-21T13:05:36.499Z,24.90
2023-05-21T13:08:05.016Z,24.90
2023-05-21T13:10:33.453Z,25.00
2023-05-21T13:13:01.869Z,24.90
2023-05-21T13:15:30.322Z,24.90
2023-05-21T13:18:01.206Z,24.80
2023-05-21T13:20:30.088Z,24.80
2023-05-21T13:22:58.642Z,24.60
2023-05-21T13:25:29.459Z,24.40
2023-05-21T13:27:58.574Z,24.30
2023-05-21T13:30:26.962Z,24.30
2023-05-21T13:32:56.019Z,24.30
2023-05-21T13:35:26.320Z,24.20
2023-05-21T13:37:54.923Z,24.10
2023-05-21T13:40:23.769Z,24.10
2023-05-21T13:42:52.098Z,24.10
2023-05-21T13:45:24.252Z,24.10
2023-05-21T13:47:52.711Z,24.10
2023-05-21T13:50:21.004Z,24.10
2023-05-21T13:52:50.679Z,24.10
2023-05-21T13:55:18.911Z,24.20
2023-05-21T13:57:47.143Z,24.30
2023-05-21T14:00:16.413Z,24.30
2023-05-21T14:02:45.418Z,24.40
2023-05-21T14:05:14.008Z,24.50
2023-05-21T14:07:42.542Z,24.40
2023-05-21T14:10:13.234Z,24.50
2023-05-21T14:12:42.067Z,24.40
2023-05-21T14:15:11.921Z,24.40
2023-05-21T14:17:42.216Z,24.50
2023-05-21T14:20:12.248Z,24.50
2023-05-21T14:22:40.535Z,24.60
2023-05-21T14:25:09.604Z,24.60
2023-05-21T14:27:39.225Z,24.50
2023-05-21T14:30:09.236Z,24.60
2023-05-21T14:32:37.551Z,24.50
2023-05-21T14:35:07.095Z,24.50
2023-05-21T14:37:35.430Z,24.50
2023-05-21T14:40:05.334Z,24.40
2023-05-21T14:42:33.561Z,24.40
2023-05-21T14:45:17.397Z,24.40
2023-05-21T14:47:48.271Z,24.30
2023-05-21T14:50:18.386Z,24.40
2023-05-21T14:52:46.888Z,24.50
2023-05-21T14:55:16.874Z,24.50
2023-05-21T14:57:46.381Z,24.40
2023-05-21T15:00:16.940Z,24.50
2023-05-21T15:02:45.239Z,24.40
2023-05-21T15:05:13.706Z,24.40
2023-05-21T15:07:41.963Z,24.40
2023-05-21T15:10:11.408Z,24.30
2023-05-21T15:12:40.709Z,24.30
2023-05-21T15:15:10.076Z,24.20
2023-05-21T15:17:39.796Z,24.20
2023-05-21T15:20:09.546Z,24.20
2023-05-21T15:22:39.025Z,24.30
2023-05-21T15:25:08.745Z,24.30
2023-05-21T15:27:37.020Z,24.30
2023-05-21T15:30:06.930Z,24.40
2023-05-21T15:32:35.462Z,24.40
2023-05-21T15:35:05.590Z,24.30
2023-05-21T15:37:34.245Z,24.30
2023-05-21T15:40:02.822Z,24.30
2023-05-21T15:42:31.898Z,24.10
2023-05-21T15:45:00.375Z,24.10
2023-05-21T15:47:28.953Z,24.00
2023-05-21T15:49:58.609Z,24.00
2023-05-21T15:52:28.633Z,24.00
2023-05-21T15:54:56.953Z,24.10
2023-05-21T15:57:25.251Z,24.00
2023-05-21T15:59:53.554Z,24.10
2023-05-21T16:02:21.993Z,24.10
2023-05-21T16:04:51.938Z,24.20
2023-05-21T16:07:20.982Z,24.20
2023-05-21T16:09:50.612Z,24.10
2023-05-21T16:12:19.060Z,24.10
2023-05-21T16:14:50.785Z,24.30
2023-05-21T16:17:19.638Z,24.30
2023-05-21T16:19:48.242Z,24.30
2023-05-21T16:22:17.025Z,24.40
2023-05-21T16:24:45.453Z,24.40
2023-05-21T16:27:15.068Z,24.40
2023-05-21T16:29:43.548Z,24.40
2023-05-21T16:32:13.868Z,24.30
2023-05-21T16:34:42.503Z,24.20
2023-05-21T16:37:11.080Z,24.20
2023-05-21T16:39:39.450Z,24.20
2023-05-21T16:42:08.941Z,24.10
2023-05-21T16:44:39.243Z,24.10
2023-05-21T16:47:07.720Z,23.90
2023-05-21T16:49:36.068Z,23.90
2023-05-21T16:52:04.670Z,23.70
2023-05-21T16:54:32.988Z,23.70
2023-05-21T16:57:01.332Z,23.60
2023-05-21T16:59:30.024Z,23.70
2023-05-21T17:01:59.739Z,23.70
2023-05-21T17:04:28.161Z,23.60
2023-05-21T17:06:56.448Z,23.60
2023-05-21T17:09:24.750Z,23.50
2023-05-21T17:11:54.013Z,23.50
2023-05-21T17:14:33.088Z,23.50
2023-05-21T17:17:03.779Z,23.40
2023-05-21T17:19:32.333Z,23.40
2023-05-21T17:22:00.839Z,23.40
2023-05-21T17:24:29.119Z,23.30
2023-05-21T17:26:57.466Z,23.30
2023-05-21T17:29:26.949Z,23.30
2023-05-21T17:31:56.547Z,23.30
2023-05-21T17:34:29.607Z,23.10
2023-05-21T17:36:59.941Z,23.10
2023-05-21T17:39:28.204Z,23.00
2023-05-21T17:41:57.373Z,23.00
2023-05-21T17:44:25.938Z,22.90
2023-05-21T17:46:54.342Z,22.90
2023-05-21T17:49:22.682Z,22.90
2023-05-21T17:51:52.292Z,22.90
2023-05-21T17:54:21.262Z,22.80
2023-05-21T17:56:49.614Z,22.80
2023-05-21T17:59:17.878Z,22.80
2023-05-21T18:01:46.142Z,22.80
2023-05-21T18:04:14.666Z,22.70
2023-05-21T18:06:44.568Z,22.70
2023-05-21T18:09:15.409Z,22.70
2023-05-21T18:11:45.071Z,22.60
2023-05-21T18:14:13.516Z,22.50
2023-05-21T18:16:42.100Z,22.50
2023-05-21T18:19:10.479Z,22.50
2023-05-21T18:21:39.248Z,22.50
2023-05-21T18:24:08.642Z,22.50
2023-05-21T18:26:38.245Z,22.40
2023-05-21T18:29:06.650Z,22.30
2023-05-21T18:31:34.993Z,22.30
2023-05-21T18:34:03.504Z,22.30
2023-05-21T18:36:38.407Z,22.20
2023-05-21T18:39:07.804Z,22.00
2023-05-21T18:41:38.018Z,22.00
2023-05-21T18:44:06.935Z,22.10
2023-05-21T18:46:36.310Z,21.90
2023-05-21T18:49:06.225Z,21.80
2023-05-21T18:51:34.709Z,21.90
2023-05-21T18:54:04.035Z,21.90
2023-05-21T18:56:32.443Z,21.80
2023-05-21T18:59:02.234Z,21.80
2023-05-21T19:01:30.837Z,21.80
2023-05-21T19:03:59.098Z,21.80
2023-05-21T19:06:27.730Z,21.80
2023-05-21T19:08:56.153Z,21.70
2023-05-21T19:11:27.518Z,21.70
2023-05-21T19:13:55.874Z,21.70
2023-05-21T19:16:25.768Z,21.60
2023-05-21T19:18:54.143Z,21.50
2023-05-21T19:21:22.549Z,21.50
2023-05-21T19:23:53.656Z,21.50
2023-05-21T19:26:23.366Z,21.40
2023-05-21T19:28:53.682Z,21.50
2023-05-21T19:31:23.407Z,21.50
2023-05-21T19:33:53.836Z,21.40
2023-05-21T19:36:23.017Z,21.30
2023-05-21T19:38:51.999Z,21.20
2023-05-21T19:41:21.938Z,21.30
2023-05-21T19:43:50.335Z,21.30
2023-05-21T19:46:20.274Z,21.30
2023-05-21T19:48:49.629Z,21.10
2023-05-21T19:51:19.369Z,21.10
2023-05-21T19:53:47.693Z,21.10
2023-05-21T19:56:17.209Z,21.00
2023-05-21T19:58:47.928Z,20.90
2023-05-21T20:01:17.868Z,21.00
2023-05-21T20:03:46.412Z,20.90
2023-05-21T20:06:18.749Z,20.90
2023-05-21T20:08:48.576Z,20.90
2023-05-21T20:11:17.412Z,20.90
2023-05-21T20:13:50.037Z,20.80
2023-05-21T20:16:19.928Z,20.80
2023-05-21T20:18:48.852Z,20.90
2023-05-21T20:21:18.942Z,20.80
2023-05-21T20:23:49.000Z,20.80
2023-05-21T20:26:18.786Z,20.70
2023-05-21T20:28:47.058Z,20.70
2023-05-21T20:31:15.531Z,20.70
2023-05-21T20:33:43.873Z,20.70
2023-05-21T20:36:13.322Z,20.70
2023-05-21T20:38:42.005Z,20.70
2023-05-21T20:41:11.760Z,20.60
2023-05-21T20:43:40.364Z,20.60
2023-05-21T20:46:08.682Z,20.60
2023-05-21T20:48:37.773Z,20.60
2023-05-21T20:51:06.794Z,20.60
2023-05-21T20:53:35.167Z,20.60
2023-05-21T20:56:07.862Z,20.60
2023-05-21T20:58:39.865Z,20.60
2023-05-21T21:01:10.491Z,20.50
2023-05-21T21:03:41.133Z,20.50
2023-05-21T21:06:09.865Z,20.50
2023-05-21T21:08:40.262Z,20.50
2023-05-21T21:11:09.275Z,20.40
2023-05-21T21:13:39.581Z,20.40
2023-05-21T21:16:09.556Z,20.30
2023-05-21T21:18:37.833Z,20.20
2023-05-21T21:21:06.695Z,20.10
2023-05-21T21:23:34.968Z,20.00
2023-05-21T21:26:03.328Z,20.10
2023-05-21T21:28:31.603Z,20.10
2023-05-21T21:31:01.466Z,20.10
2023-05-21T21:33:29.787Z,20.10
2023-05-21T21:35:58.128Z,20.10
2023-05-21T21:38:26.374Z,20.10
2023-05-21T21:40:55.017Z,20.00
2023-05-21T21:43:23.283Z,20.40
2023-05-21T21:45:51.571Z,20.20
2023-05-21T21:48:21.281Z,20.10
2023-05-21T21:50:49.564Z,20.00
2023-05-21T21:53:18.104Z,20.00
2023-05-21T21:55:46.474Z,19.90
2023-05-21T21:58:14.783Z,19.80
2023-05-21T22:00:43.556Z,19.80
2023-05-21T22:03:14.538Z,19.70
2023-05-21T22:05:44.511Z,19.70
2023-05-21T22:08:12.942Z,19.70
2023-05-21T22:10:41.400Z,19.60
2023-05-21T22:13:09.975Z,19.60
2023-05-21T22:15:38.437Z,19.60
2023-05-21T22:18:09.421Z,19.60
2023-05-21T22:20:38.069Z,19.60
2023-05-21T22:23:07.903Z,19.60
2023-05-21T22:25:36.321Z,19.60
2023-05-21T22:28:04.876Z,19.60
2023-05-21T22:30:33.286Z,19.60
2023-05-21T22:33:01.737Z,19.60
2023-05-21T22:35:30.055Z,19.60
2023-05-21T22:37:58.666Z,19.50
2023-05-21T22:40:28.245Z,19.40
2023-05-21T22:42:56.877Z,19.40
2023-05-21T22:45:26.356Z,19.50
2023-05-21T22:47:56.512Z,19.40
2023-05-21T22:50:25.270Z,19.40
2023-05-21T22:52:53.742Z,19.30
2023-05-21T22:55:22.110Z,19.30
2023-05-21T22:57:51.744Z,19.30
2023-05-21T23:00:20.621Z,19.20
2023-05-21T23:02:51.385Z,19.10
2023-05-21T23:05:21.533Z,19.10
2023-05-21T23:07:49.862Z,19.00
2023-05-21T23:10:18.253Z,19.00
2023-05-21T23:12:46.527Z,18.90
2023-05-21T23:15:16.425Z,18.80
2023-05-21T23:17:44.743Z,18.70
2023-05-21T23:20:13.373Z,18.70
2023-05-21T23:22:41.679Z,18.70
2023-05-21T23:25:10.961Z,18.70
2023-05-21T23:27:39.328Z,18.70
2023-05-21T23:30:09.711Z,18.70
2023-05-21T23:32:39.372Z,18.70
2023-05-21T23:35:09.334Z,18.70
2023-05-21T23:37:37.747Z,18.60
2023-05-21T23:40:07.902Z,18.60
2023-05-21T23:42:36.329Z,18.60
2023-05-21T23:45:05.831Z,18.50
2023-05-21T23:47:34.240Z,18.50
2023-05-21T23:50:04.112Z,18.60
2023-05-21T23:52:32.564Z,18.50
2023-05-21T23:55:00.824Z,18.50
2023-05-21T23:57:29.144Z,18.50
2023-05-21T23:59:57.419Z,18.50
